sensor_id;sensor_type;location;lat;lon;timestamp;P1;durP1;ratioP1;P2;durP2;ratioP2
1380;SDS011;684;48.342;10.096;2023-06-24T00:01:28;9.57;;;4.83;;
1380;SDS011;684;48.342;10.096;2023-06-24T00:03:56;8.43;;;5.20;;
1380;SDS011;684;48.342;10.096;2023-06-24T00:06:23;9.60;;;6.00;;
1380;SDS011;684;48.342;10.096;2023-06-24T00:08:51;8.73;;;6.10;;
1380;SDS011;684;48.342;10.096;2023-06-24T00:11:26;8.23;;;5.73;;
1380;SDS011;684;48.342;10.096;2023-06-24T00:13:54;9.90;;;6.10;;
1380;SDS011;684;48.342;10.096;2023-06-24T00:16:20;8.37;;;5.50;;
1380;SDS011;684;48.342;10.096;2023-06-24T00:18:52;9.50;;;5.67;;
1380;SDS011;684;48.342;10.096;2023-06-24T00:21:20;8.90;;;5.43;;
1380;SDS011;684;48.342;10.096;2023-06-24T00:23:47;8.70;;;4.83;;
1380;SDS011;684;48.342;10.096;2023-06-24T00:26:14;8.67;;;5.80;;
1380;SDS011;684;48.342;10.096;2023-06-24T00:28:43;8.53;;;5.60;;
1380;SDS011;684;48.342;10.096;2023-06-24T00:31:10;11.73;;;5.10;;
1380;SDS011;684;48.342;10.096;2023-06-24T00:33:37;8.50;;;5.70;;
1380;SDS011;684;48.342;10.096;2023-06-24T00:36:04;8.70;;;5.23;;
1380;SDS011;684;48.342;10.096;2023-06-24T00:38:33;9.57;;;5.47;;
1380;SDS011;684;48.342;10.096;2023-06-24T00:41:00;9.70;;;5.33;;
1380;SDS011;684;48.342;10.096;2023-06-24T00:43:27;8.53;;;5.20;;
1380;SDS011;684;48.342;10.096;2023-06-24T00:45:57;8.03;;;5.40;;
1380;SDS011;684;48.342;10.096;2023-06-24T00:48:24;10.17;;;6.77;;
1380;SDS011;684;48.342;10.096;2023-06-24T00:50:50;8.70;;;5.90;;
1380;SDS011;684;48.342;10.096;2023-06-24T00:53:17;10.70;;;6.03;;
1380;SDS011;684;48.342;10.096;2023-06-24T00:55:49;11.30;;;5.43;;
1380;SDS011;684;48.342;10.096;2023-06-24T00:58:17;9.23;;;5.53;;
1380;SDS011;684;48.342;10.096;2023-06-24T01:00:45;12.63;;;5.43;;
1380;SDS011;684;48.342;10.096;2023-06-24T01:03:23;8.80;;;5.90;;
1380;SDS011;684;48.342;10.096;2023-06-24T01:05:50;8.20;;;5.60;;
1380;SDS011;684;48.342;10.096;2023-06-24T01:08:18;10.07;;;5.53;;
1380;SDS011;684;48.342;10.096;2023-06-24T01:10:47;8.60;;;5.70;;
1380;SDS011;684;48.342;10.096;2023-06-24T01:13:15;10.57;;;5.90;;
1380;SDS011;684;48.342;10.096;2023-06-24T01:15:42;9.70;;;6.60;;
1380;SDS011;684;48.342;10.096;2023-06-24T01:18:10;7.77;;;5.27;;
1380;SDS011;684;48.342;10.096;2023-06-24T01:20:49;9.43;;;6.63;;
1380;SDS011;684;48.342;10.096;2023-06-24T01:26:32;9.77;;;7.10;;
1380;SDS011;684;48.342;10.096;2023-06-24T01:29:29;10.20;;;7.20;;
1380;SDS011;684;48.342;10.096;2023-06-24T01:32:12;10.50;;;7.40;;
1380;SDS011;684;48.342;10.096;2023-06-24T01:34:46;13.03;;;7.97;;
1380;SDS011;684;48.342;10.096;2023-06-24T01:37:17;13.77;;;8.50;;
1380;SDS011;684;48.342;10.096;2023-06-24T01:39:49;12.03;;;8.60;;
1380;SDS011;684;48.342;10.096;2023-06-24T01:42:31;11.63;;;8.20;;
1380;SDS011;684;48.342;10.096;2023-06-24T01:45:01;10.80;;;7.70;;
1380;SDS011;684;48.342;10.096;2023-06-24T01:47:30;11.57;;;7.53;;
1380;SDS011;684;48.342;10.096;2023-06-24T01:49:57;12.03;;;7.57;;
1380;SDS011;684;48.342;10.096;2023-06-24T01:52:27;11.50;;;7.30;;
1380;SDS011;684;48.342;10.096;2023-06-24T01:54:56;11.73;;;8.30;;
1380;SDS011;684;48.342;10.096;2023-06-24T01:57:25;10.57;;;5.90;;
1380;SDS011;684;48.342;10.096;2023-06-24T01:59:53;9.20;;;7.07;;
1380;SDS011;684;48.342;10.096;2023-06-24T02:02:21;11.13;;;7.50;;
1380;SDS011;684;48.342;10.096;2023-06-24T02:04:51;12.30;;;6.40;;
1380;SDS011;684;48.342;10.096;2023-06-24T02:07:20;11.90;;;7.07;;
1380;SDS011;684;48.342;10.096;2023-06-24T02:09:48;11.60;;;7.40;;
1380;SDS011;684;48.342;10.096;2023-06-24T02:12:17;9.87;;;7.30;;
1380;SDS011;684;48.342;10.096;2023-06-24T02:14:44;11.67;;;7.77;;
1380;SDS011;684;48.342;10.096;2023-06-24T02:17:13;16.13;;;9.67;;
1380;SDS011;684;48.342;10.096;2023-06-24T02:19:40;12.20;;;6.97;;
1380;SDS011;684;48.342;10.096;2023-06-24T02:22:09;14.33;;;6.73;;
1380;SDS011;684;48.342;10.096;2023-06-24T02:24:37;12.63;;;8.40;;
1380;SDS011;684;48.342;10.096;2023-06-24T02:27:06;9.67;;;7.23;;
1380;SDS011;684;48.342;10.096;2023-06-24T02:29:34;12.13;;;7.57;;
1380;SDS011;684;48.342;10.096;2023-06-24T02:32:03;10.17;;;6.90;;
1380;SDS011;684;48.342;10.096;2023-06-24T02:34:30;12.60;;;7.20;;
1380;SDS011;684;48.342;10.096;2023-06-24T02:36:57;11.20;;;7.30;;
1380;SDS011;684;48.342;10.096;2023-06-24T02:39:25;11.50;;;7.20;;
1380;SDS011;684;48.342;10.096;2023-06-24T02:41:52;10.13;;;7.47;;
1380;SDS011;684;48.342;10.096;2023-06-24T02:44:19;11.77;;;7.37;;
1380;SDS011;684;48.342;10.096;2023-06-24T02:46:46;11.53;;;7.67;;
1380;SDS011;684;48.342;10.096;2023-06-24T02:49:15;11.93;;;7.90;;
1380;SDS011;684;48.342;10.096;2023-06-24T02:51:43;10.57;;;7.40;;
1380;SDS011;684;48.342;10.096;2023-06-24T02:54:10;14.00;;;8.10;;
1380;SDS011;684;48.342;10.096;2023-06-24T02:56:39;10.90;;;7.10;;
1380;SDS011;684;48.342;10.096;2023-06-24T02:59:09;10.60;;;7.20;;
1380;SDS011;684;48.342;10.096;2023-06-24T03:01:36;12.33;;;8.33;;
1380;SDS011;684;48.342;10.096;2023-06-24T03:04:04;13.33;;;8.43;;
1380;SDS011;684;48.342;10.096;2023-06-24T03:06:31;13.53;;;8.27;;
1380;SDS011;684;48.342;10.096;2023-06-24T03:09:01;13.43;;;7.77;;
1380;SDS011;684;48.342;10.096;2023-06-24T03:11:29;10.40;;;7.33;;
1380;SDS011;684;48.342;10.096;2023-06-24T03:13:57;11.70;;;8.30;;
1380;SDS011;684;48.342;10.096;2023-06-24T03:16:24;10.33;;;6.97;;
1380;SDS011;684;48.342;10.096;2023-06-24T03:18:50;11.57;;;7.23;;
1380;SDS011;684;48.342;10.096;2023-06-24T03:21:17;11.50;;;7.60;;
1380;SDS011;684;48.342;10.096;2023-06-24T03:23:44;9.30;;;6.73;;
1380;SDS011;684;48.342;10.096;2023-06-24T03:26:10;14.20;;;7.27;;
1380;SDS011;684;48.342;10.096;2023-06-24T03:28:37;10.27;;;5.90;;
1380;SDS011;684;48.342;10.096;2023-06-24T03:31:05;9.73;;;6.50;;
1380;SDS011;684;48.342;10.096;2023-06-24T03:33:32;7.80;;;5.07;;
1380;SDS011;684;48.342;10.096;2023-06-24T03:35:59;9.17;;;5.77;;
1380;SDS011;684;48.342;10.096;2023-06-24T03:38:25;9.33;;;5.17;;
1380;SDS011;684;48.342;10.096;2023-06-24T03:40:53;8.20;;;5.03;;
1380;SDS011;684;48.342;10.096;2023-06-24T03:43:19;8.90;;;5.07;;
1380;SDS011;684;48.342;10.096;2023-06-24T03:45:46;8.07;;;5.17;;
1380;SDS011;684;48.342;10.096;2023-06-24T03:48:14;11.07;;;6.07;;
1380;SDS011;684;48.342;10.096;2023-06-24T03:50:41;9.93;;;6.00;;
1380;SDS011;684;48.342;10.096;2023-06-24T03:53:07;10.67;;;5.90;;
1380;SDS011;684;48.342;10.096;2023-06-24T03:55:34;8.70;;;5.67;;
1380;SDS011;684;48.342;10.096;2023-06-24T03:58:01;8.33;;;5.47;;
1380;SDS011;684;48.342;10.096;2023-06-24T04:00:28;10.60;;;5.80;;
1380;SDS011;684;48.342;10.096;2023-06-24T04:02:54;8.00;;;5.53;;
1380;SDS011;684;48.342;10.096;2023-06-24T04:05:22;8.73;;;5.37;;
1380;SDS011;684;48.342;10.096;2023-06-24T04:07:50;8.23;;;5.20;;
1380;SDS011;684;48.342;10.096;2023-06-24T04:10:17;8.60;;;5.10;;
1380;SDS011;684;48.342;10.096;2023-06-24T04:12:44;10.02;;;5.68;;
1380;SDS011;684;48.342;10.096;2023-06-24T04:15:11;11.80;;;5.10;;
1380;SDS011;684;48.342;10.096;2023-06-24T04:17:37;8.70;;;4.80;;
1380;SDS011;684;48.342;10.096;2023-06-24T04:20:05;8.47;;;4.90;;
1380;SDS011;684;48.342;10.096;2023-06-24T04:22:35;8.27;;;5.40;;
1380;SDS011;684;48.342;10.096;2023-06-24T04:25:02;12.67;;;5.33;;
1380;SDS011;684;48.342;10.096;2023-06-24T04:27:31;8.30;;;5.63;;
1380;SDS011;684;48.342;10.096;2023-06-24T04:29:57;7.67;;;5.20;;
1380;SDS011;684;48.342;10.096;2023-06-24T04:32:24;8.73;;;5.10;;
1380;SDS011;684;48.342;10.096;2023-06-24T04:34:51;9.03;;;5.10;;
1380;SDS011;684;48.342;10.096;2023-06-24T04:37:17;7.30;;;4.50;;
1380;SDS011;684;48.342;10.096;2023-06-24T04:39:45;8.10;;;4.80;;
1380;SDS011;684;48.342;10.096;2023-06-24T04:42:13;8.63;;;4.80;;
1380;SDS011;684;48.342;10.096;2023-06-24T04:44:40;6.77;;;4.50;;
1380;SDS011;684;48.342;10.096;2023-06-24T04:47:07;9.33;;;5.10;;
1380;SDS011;684;48.342;10.096;2023-06-24T04:49:34;6.60;;;4.10;;
1380;SDS011;684;48.342;10.096;2023-06-24T04:52:00;6.60;;;4.40;;
1380;SDS011;684;48.342;10.096;2023-06-24T04:54:27;7.90;;;4.77;;
1380;SDS011;684;48.342;10.096;2023-06-24T04:56:55;8.53;;;4.20;;
1380;SDS011;684;48.342;10.096;2023-06-24T04:59:22;7.40;;;4.90;;
1380;SDS011;684;48.342;10.096;2023-06-24T05:01:49;8.60;;;4.70;;
1380;SDS011;684;48.342;10.096;2023-06-24T05:04:16;6.90;;;4.50;;
1380;SDS011;684;48.342;10.096;2023-06-24T05:06:42;8.23;;;4.10;;
1380;SDS011;684;48.342;10.096;2023-06-24T05:09:09;6.10;;;3.83;;
1380;SDS011;684;48.342;10.096;2023-06-24T05:11:38;7.67;;;4.43;;
1380;SDS011;684;48.342;10.096;2023-06-24T05:14:06;8.73;;;4.43;;
1380;SDS011;684;48.342;10.096;2023-06-24T05:16:33;7.73;;;4.33;;
1380;SDS011;684;48.342;10.096;2023-06-24T05:19:00;7.67;;;3.77;;
1380;SDS011;684;48.342;10.096;2023-06-24T05:21:26;7.30;;;4.50;;
1380;SDS011;684;48.342;10.096;2023-06-24T05:23:53;7.40;;;4.60;;
1380;SDS011;684;48.342;10.096;2023-06-24T05:26:20;7.87;;;4.87;;
1380;SDS011;684;48.342;10.096;2023-06-24T05:28:46;7.10;;;4.90;;
1380;SDS011;684;48.342;10.096;2023-06-24T05:31:14;6.93;;;4.37;;
1380;SDS011;684;48.342;10.096;2023-06-24T05:33:41;7.80;;;4.60;;
1380;SDS011;684;48.342;10.096;2023-06-24T05:36:08;6.70;;;4.33;;
1380;SDS011;684;48.342;10.096;2023-06-24T05:38:35;7.67;;;4.67;;
1380;SDS011;684;48.342;10.096;2023-06-24T05:41:01;7.60;;;5.70;;
1380;SDS011;684;48.342;10.096;2023-06-24T05:43:28;8.70;;;5.63;;
1380;SDS011;684;48.342;10.096;2023-06-24T05:45:55;6.90;;;4.93;;
1380;SDS011;684;48.342;10.096;2023-06-24T05:48:23;7.93;;;6.03;;
1380;SDS011;684;48.342;10.096;2023-06-24T05:50:49;8.00;;;4.80;;
1380;SDS011;684;48.342;10.096;2023-06-24T05:53:16;7.27;;;5.60;;
1380;SDS011;684;48.342;10.096;2023-06-24T05:55:43;9.90;;;5.77;;
1380;SDS011;684;48.342;10.096;2023-06-24T05:58:10;7.77;;;6.17;;
1380;SDS011;684;48.342;10.096;2023-06-24T06:00:37;6.80;;;4.80;;
1380;SDS011;684;48.342;10.096;2023-06-24T06:03:03;7.70;;;5.30;;
1380;SDS011;684;48.342;10.096;2023-06-24T06:05:31;6.90;;;4.83;;
1380;SDS011;684;48.342;10.096;2023-06-24T06:07:58;6.90;;;5.20;;
1380;SDS011;684;48.342;10.096;2023-06-24T06:10:25;7.10;;;5.20;;
1380;SDS011;684;48.342;10.096;2023-06-24T06:12:52;7.00;;;5.43;;
1380;SDS011;684;48.342;10.096;2023-06-24T06:15:18;8.27;;;4.73;;
1380;SDS011;684;48.342;10.096;2023-06-24T06:17:45;7.60;;;5.23;;
1380;SDS011;684;48.342;10.096;2023-06-24T06:20:12;6.40;;;4.77;;
1380;SDS011;684;48.342;10.096;2023-06-24T06:22:40;6.03;;;4.47;;
1380;SDS011;684;48.342;10.096;2023-06-24T06:25:07;6.60;;;5.20;;
1380;SDS011;684;48.342;10.096;2023-06-24T06:27:34;6.93;;;4.80;;
1380;SDS011;684;48.342;10.096;2023-06-24T06:30:01;6.40;;;4.60;;
1380;SDS011;684;48.342;10.096;2023-06-24T06:32:29;8.50;;;4.93;;
1380;SDS011;684;48.342;10.096;2023-06-24T06:34:56;6.77;;;4.60;;
1380;SDS011;684;48.342;10.096;2023-06-24T06:37:22;5.90;;;4.80;;
1380;SDS011;684;48.342;10.096;2023-06-24T06:39:50;7.03;;;4.47;;
1380;SDS011;684;48.342;10.096;2023-06-24T06:42:17;7.63;;;4.73;;
1380;SDS011;684;48.342;10.096;2023-06-24T06:44:44;7.93;;;4.20;;
1380;SDS011;684;48.342;10.096;2023-06-24T06:47:10;6.53;;;4.50;;
1380;SDS011;684;48.342;10.096;2023-06-24T06:49:37;5.00;;;3.73;;
1380;SDS011;684;48.342;10.096;2023-06-24T06:52:05;6.20;;;3.90;;
1380;SDS011;684;48.342;10.096;2023-06-24T06:54:32;5.70;;;4.10;;
1380;SDS011;684;48.342;10.096;2023-06-24T06:57:01;5.93;;;4.10;;
1380;SDS011;684;48.342;10.096;2023-06-24T06:59:28;5.73;;;4.10;;
1380;SDS011;684;48.342;10.096;2023-06-24T07:01:55;5.07;;;3.47;;
1380;SDS011;684;48.342;10.096;2023-06-24T07:04:22;7.17;;;4.37;;
1380;SDS011;684;48.342;10.096;2023-06-24T07:06:49;4.90;;;3.40;;
1380;SDS011;684;48.342;10.096;2023-06-24T07:09:15;5.40;;;3.90;;
1380;SDS011;684;48.342;10.096;2023-06-24T07:11:42;6.17;;;3.70;;
1380;SDS011;684;48.342;10.096;2023-06-24T07:14:10;6.37;;;3.67;;
1380;SDS011;684;48.342;10.096;2023-06-24T07:16:37;11.10;;;4.30;;
1380;SDS011;684;48.342;10.096;2023-06-24T07:19:05;4.33;;;3.03;;
1380;SDS011;684;48.342;10.096;2023-06-24T07:21:32;4.80;;;3.57;;
1380;SDS011;684;48.342;10.096;2023-06-24T07:23:59;5.27;;;3.30;;
1380;SDS011;684;48.342;10.096;2023-06-24T07:26:25;5.70;;;3.93;;
1380;SDS011;684;48.342;10.096;2023-06-24T07:28:56;5.40;;;3.20;;
1380;SDS011;684;48.342;10.096;2023-06-24T07:31:25;5.03;;;3.40;;
1380;SDS011;684;48.342;10.096;2023-06-24T07:33:51;5.27;;;3.63;;
1380;SDS011;684;48.342;10.096;2023-06-24T07:36:18;4.90;;;3.70;;
1380;SDS011;684;48.342;10.096;2023-06-24T07:38:45;5.30;;;4.10;;
1380;SDS011;684;48.342;10.096;2023-06-24T07:41:12;5.97;;;3.77;;
1380;SDS011;684;48.342;10.096;2023-06-24T07:43:38;5.30;;;3.73;;
1380;SDS011;684;48.342;10.096;2023-06-24T07:46:05;5.20;;;3.93;;
1380;SDS011;684;48.342;10.096;2023-06-24T07:48:33;6.83;;;3.70;;
1380;SDS011;684;48.342;10.096;2023-06-24T07:51:00;5.90;;;3.37;;
1380;SDS011;684;48.342;10.096;2023-06-24T07:53:26;4.97;;;3.10;;
1380;SDS011;684;48.342;10.096;2023-06-24T07:55:53;5.00;;;3.30;;
1380;SDS011;684;48.342;10.096;2023-06-24T07:58:20;6.50;;;3.50;;
1380;SDS011;684;48.342;10.096;2023-06-24T08:00:47;5.27;;;3.63;;
1380;SDS011;684;48.342;10.096;2023-06-24T08:03:13;6.27;;;4.23;;
1380;SDS011;684;48.342;10.096;2023-06-24T08:05:41;6.03;;;3.90;;
1380;SDS011;684;48.342;10.096;2023-06-24T08:08:08;6.10;;;3.77;;
1380;SDS011;684;48.342;10.096;2023-06-24T08:10:35;6.70;;;3.90;;
1380;SDS011;684;48.342;10.096;2023-06-24T08:13:02;4.77;;;3.50;;
1380;SDS011;684;48.342;10.096;2023-06-24T08:15:29;7.43;;;3.53;;
1380;SDS011;684;48.342;10.096;2023-06-24T08:17:55;7.17;;;3.70;;
1380;SDS011;684;48.342;10.096;2023-06-24T08:20:22;6.90;;;3.50;;
1380;SDS011;684;48.342;10.096;2023-06-24T08:22:51;4.80;;;3.07;;
1380;SDS011;684;48.342;10.096;2023-06-24T08:25:18;5.80;;;4.27;;
1380;SDS011;684;48.342;10.096;2023-06-24T08:27:44;4.37;;;3.37;;
1380;SDS011;684;48.342;10.096;2023-06-24T08:30:12;5.40;;;4.10;;
1380;SDS011;684;48.342;10.096;2023-06-24T08:32:39;6.33;;;4.90;;
1380;SDS011;684;48.342;10.096;2023-06-24T08:35:06;5.57;;;3.90;;
1380;SDS011;684;48.342;10.096;2023-06-24T08:37:34;7.70;;;5.20;;
1380;SDS011;684;48.342;10.096;2023-06-24T08:40:02;7.53;;;5.70;;
1380;SDS011;684;48.342;10.096;2023-06-24T08:42:31;6.50;;;5.17;;
1380;SDS011;684;48.342;10.096;2023-06-24T08:44:59;6.13;;;4.90;;
1380;SDS011;684;48.342;10.096;2023-06-24T08:47:27;6.73;;;4.80;;
1380;SDS011;684;48.342;10.096;2023-06-24T08:49:55;8.13;;;5.73;;
1380;SDS011;684;48.342;10.096;2023-06-24T08:52:29;8.30;;;5.67;;
1380;SDS011;684;48.342;10.096;2023-06-24T08:54:59;7.50;;;5.37;;
1380;SDS011;684;48.342;10.096;2023-06-24T08:57:30;5.73;;;4.43;;
1380;SDS011;684;48.342;10.096;2023-06-24T08:59:57;8.10;;;5.03;;
1380;SDS011;684;48.342;10.096;2023-06-24T09:02:24;6.57;;;4.30;;
1380;SDS011;684;48.342;10.096;2023-06-24T09:04:50;6.00;;;4.70;;
1380;SDS011;684;48.342;10.096;2023-06-24T09:07:23;6.67;;;5.20;;
1380;SDS011;684;48.342;10.096;2023-06-24T09:09:52;6.20;;;5.00;;
1380;SDS011;684;48.342;10.096;2023-06-24T09:12:20;7.00;;;4.97;;
1380;SDS011;684;48.342;10.096;2023-06-24T09:14:47;7.00;;;4.80;;
1380;SDS011;684;48.342;10.096;2023-06-24T09:17:15;7.87;;;4.97;;
1380;SDS011;684;48.342;10.096;2023-06-24T09:19:43;6.80;;;4.90;;
1380;SDS011;684;48.342;10.096;2023-06-24T09:22:09;7.50;;;4.60;;
1380;SDS011;684;48.342;10.096;2023-06-24T09:24:41;7.80;;;5.10;;
1380;SDS011;684;48.342;10.096;2023-06-24T09:27:10;6.27;;;4.60;;
1380;SDS011;684;48.342;10.096;2023-06-24T09:29:40;7.00;;;5.63;;
1380;SDS011;684;48.342;10.096;2023-06-24T09:32:08;5.77;;;3.93;;
1380;SDS011;684;48.342;10.096;2023-06-24T09:34:35;7.67;;;5.20;;
1380;SDS011;684;48.342;10.096;2023-06-24T09:37:02;6.40;;;4.23;;
1380;SDS011;684;48.342;10.096;2023-06-24T09:39:34;6.80;;;4.50;;
1380;SDS011;684;48.342;10.096;2023-06-24T09:42:02;7.93;;;5.00;;
1380;SDS011;684;48.342;10.096;2023-06-24T09:44:31;6.33;;;4.27;;
1380;SDS011;684;48.342;10.096;2023-06-24T09:46:59;7.60;;;5.17;;
1380;SDS011;684;48.342;10.096;2023-06-24T09:49:27;7.33;;;5.00;;
1380;SDS011;684;48.342;10.096;2023-06-24T09:51:55;6.83;;;5.17;;
1380;SDS011;684;48.342;10.096;2023-06-24T09:54:23;7.20;;;5.47;;
1380;SDS011;684;48.342;10.096;2023-06-24T09:56:53;8.60;;;5.33;;
1380;SDS011;684;48.342;10.096;2023-06-24T09:59:20;7.53;;;5.10;;
1380;SDS011;684;48.342;10.096;2023-06-24T10:01:49;8.70;;;5.87;;
1380;SDS011;684;48.342;10.096;2023-06-24T10:04:20;7.63;;;5.57;;
1380;SDS011;684;48.342;10.096;2023-06-24T10:06:48;6.70;;;4.70;;
1380;SDS011;684;48.342;10.096;2023-06-24T10:09:15;6.70;;;5.03;;
1380;SDS011;684;48.342;10.096;2023-06-24T10:11:44;7.57;;;5.23;;
1380;SDS011;684;48.342;10.096;2023-06-24T10:14:11;8.97;;;5.40;;
1380;SDS011;684;48.342;10.096;2023-06-24T10:16:38;9.67;;;5.40;;
1380;SDS011;684;48.342;10.096;2023-06-24T10:19:06;9.00;;;5.60;;
1380;SDS011;684;48.342;10.096;2023-06-24T10:24:30;8.90;;;6.43;;
1380;SDS011;684;48.342;10.096;2023-06-24T10:27:01;7.40;;;5.30;;
1380;SDS011;684;48.342;10.096;2023-06-24T10:29:33;8.37;;;4.73;;
1380;SDS011;684;48.342;10.096;2023-06-24T10:32:02;8.00;;;6.30;;
1380;SDS011;684;48.342;10.096;2023-06-24T10:34:33;8.20;;;6.13;;
1380;SDS011;684;48.342;10.096;2023-06-24T10:37:07;6.60;;;4.43;;
1380;SDS011;684;48.342;10.096;2023-06-24T10:39:39;8.93;;;6.03;;
1380;SDS011;684;48.342;10.096;2023-06-24T10:42:26;8.63;;;5.77;;
1380;SDS011;684;48.342;10.096;2023-06-24T10:44:55;7.07;;;4.57;;
1380;SDS011;684;48.342;10.096;2023-06-24T10:47:22;7.50;;;5.40;;
1380;SDS011;684;48.342;10.096;2023-06-24T10:49:50;11.07;;;6.07;;
1380;SDS011;684;48.342;10.096;2023-06-24T10:52:19;8.50;;;5.50;;
1380;SDS011;684;48.342;10.096;2023-06-24T10:54:47;7.50;;;4.90;;
1380;SDS011;684;48.342;10.096;2023-06-24T10:57:15;6.90;;;4.80;;
1380;SDS011;684;48.342;10.096;2023-06-24T10:59:47;6.97;;;5.00;;
1380;SDS011;684;48.342;10.096;2023-06-24T11:02:15;6.27;;;4.47;;
1380;SDS011;684;48.342;10.096;2023-06-24T11:04:43;9.30;;;5.60;;
1380;SDS011;684;48.342;10.096;2023-06-24T11:07:10;9.13;;;5.77;;
1380;SDS011;684;48.342;10.096;2023-06-24T11:09:39;6.90;;;4.73;;
1380;SDS011;684;48.342;10.096;2023-06-24T11:12:08;12.33;;;5.40;;
1380;SDS011;684;48.342;10.096;2023-06-24T11:14:36;7.70;;;5.07;;
1380;SDS011;684;48.342;10.096;2023-06-24T11:17:04;7.43;;;5.20;;
1380;SDS011;684;48.342;10.096;2023-06-24T11:19:31;7.47;;;5.30;;
1380;SDS011;684;48.342;10.096;2023-06-24T11:22:01;7.57;;;5.33;;
1380;SDS011;684;48.342;10.096;2023-06-24T11:24:28;8.10;;;5.40;;
1380;SDS011;684;48.342;10.096;2023-06-24T11:26:56;7.77;;;5.53;;
1380;SDS011;684;48.342;10.096;2023-06-24T11:29:23;6.90;;;4.70;;
1380;SDS011;684;48.342;10.096;2023-06-24T11:31:50;7.90;;;5.77;;
1380;SDS011;684;48.342;10.096;2023-06-24T11:34:17;7.27;;;5.50;;
1380;SDS011;684;48.342;10.096;2023-06-24T11:36:44;7.13;;;5.17;;
1380;SDS011;684;48.342;10.096;2023-06-24T11:39:20;8.10;;;5.23;;
1380;SDS011;684;48.342;10.096;2023-06-24T11:41:48;7.70;;;5.67;;
1380;SDS011;684;48.342;10.096;2023-06-24T11:44:18;7.50;;;5.40;;
1380;SDS011;684;48.342;10.096;2023-06-24T11:46:45;7.83;;;5.73;;
1380;SDS011;684;48.342;10.096;2023-06-24T11:49:12;8.77;;;5.30;;
1380;SDS011;684;48.342;10.096;2023-06-24T11:51:44;7.17;;;4.73;;
1380;SDS011;684;48.342;10.096;2023-06-24T11:54:14;6.37;;;4.50;;
1380;SDS011;684;48.342;10.096;2023-06-24T11:56:42;7.67;;;4.70;;
1380;SDS011;684;48.342;10.096;2023-06-24T11:59:18;8.33;;;5.53;;
1380;SDS011;684;48.342;10.096;2023-06-24T12:01:52;8.73;;;4.40;;
1380;SDS011;684;48.342;10.096;2023-06-24T12:04:20;8.70;;;6.77;;
1380;SDS011;684;48.342;10.096;2023-06-24T12:06:53;7.50;;;4.57;;
1380;SDS011;684;48.342;10.096;2023-06-24T12:09:20;6.13;;;4.10;;
1380;SDS011;684;48.342;10.096;2023-06-24T12:11:47;7.00;;;4.30;;
1380;SDS011;684;48.342;10.096;2023-06-24T12:14:13;5.50;;;3.27;;
1380;SDS011;684;48.342;10.096;2023-06-24T12:16:42;5.97;;;3.47;;
1380;SDS011;684;48.342;10.096;2023-06-24T12:19:08;6.87;;;3.73;;
1380;SDS011;684;48.342;10.096;2023-06-24T12:21:35;6.17;;;4.00;;
1380;SDS011;684;48.342;10.096;2023-06-24T12:24:04;6.87;;;4.57;;
1380;SDS011;684;48.342;10.096;2023-06-24T12:26:31;8.90;;;4.17;;
1380;SDS011;684;48.342;10.096;2023-06-24T12:28:58;10.20;;;3.93;;
1380;SDS011;684;48.342;10.096;2023-06-24T12:31:25;5.87;;;3.47;;
1380;SDS011;684;48.342;10.096;2023-06-24T12:33:53;6.10;;;3.07;;
1380;SDS011;684;48.342;10.096;2023-06-24T12:36:20;6.33;;;3.27;;
1380;SDS011;684;48.342;10.096;2023-06-24T12:38:48;5.70;;;3.70;;
1380;SDS011;684;48.342;10.096;2023-06-24T12:41:14;5.70;;;3.40;;
1380;SDS011;684;48.342;10.096;2023-06-24T12:43:41;6.13;;;3.23;;
1380;SDS011;684;48.342;10.096;2023-06-24T12:46:08;6.10;;;2.83;;
1380;SDS011;684;48.342;10.096;2023-06-24T12:48:34;5.37;;;3.33;;
1380;SDS011;684;48.342;10.096;2023-06-24T12:51:02;6.33;;;3.30;;
1380;SDS011;684;48.342;10.096;2023-06-24T12:53:29;5.93;;;3.30;;
1380;SDS011;684;48.342;10.096;2023-06-24T12:55:56;6.20;;;2.90;;
1380;SDS011;684;48.342;10.096;2023-06-24T12:58:23;5.57;;;3.40;;
1380;SDS011;684;48.342;10.096;2023-06-24T13:00:50;5.83;;;3.50;;
1380;SDS011;684;48.342;10.096;2023-06-24T13:03:17;5.47;;;3.33;;
1380;SDS011;684;48.342;10.096;2023-06-24T13:05:44;8.73;;;4.10;;
1380;SDS011;684;48.342;10.096;2023-06-24T13:08:12;6.00;;;3.57;;
1380;SDS011;684;48.342;10.096;2023-06-24T13:10:50;6.83;;;3.23;;
1380;SDS011;684;48.342;10.096;2023-06-24T13:13:17;5.50;;;3.10;;
1380;SDS011;684;48.342;10.096;2023-06-24T13:15:43;7.50;;;3.50;;
1380;SDS011;684;48.342;10.096;2023-06-24T13:18:10;7.60;;;3.37;;
1380;SDS011;684;48.342;10.096;2023-06-24T13:20:37;6.20;;;3.70;;
1380;SDS011;684;48.342;10.096;2023-06-24T13:23:03;5.47;;;2.73;;
1380;SDS011;684;48.342;10.096;2023-06-24T13:25:30;7.00;;;3.80;;
1380;SDS011;684;48.342;10.096;2023-06-24T13:27:59;6.17;;;3.40;;
1380;SDS011;684;48.342;10.096;2023-06-24T13:30:25;6.10;;;3.17;;
1380;SDS011;684;48.342;10.096;2023-06-24T13:32:52;7.63;;;3.90;;
1380;SDS011;684;48.342;10.096;2023-06-24T13:35:19;6.30;;;3.63;;
1380;SDS011;684;48.342;10.096;2023-06-24T13:37:45;6.83;;;3.50;;
1380;SDS011;684;48.342;10.096;2023-06-24T13:40:12;6.00;;;3.60;;
1380;SDS011;684;48.342;10.096;2023-06-24T13:42:39;6.30;;;3.30;;
1380;SDS011;684;48.342;10.096;2023-06-24T13:45:07;6.40;;;3.17;;
1380;SDS011;684;48.342;10.096;2023-06-24T13:47:35;6.50;;;4.00;;
1380;SDS011;684;48.342;10.096;2023-06-24T13:50:03;5.90;;;3.70;;
1380;SDS011;684;48.342;10.096;2023-06-24T13:52:30;5.90;;;3.70;;
1380;SDS011;684;48.342;10.096;2023-06-24T13:54:57;6.50;;;3.90;;
1380;SDS011;684;48.342;10.096;2023-06-24T13:57:24;8.57;;;3.67;;
1380;SDS011;684;48.342;10.096;2023-06-24T13:59:51;6.00;;;3.43;;
1380;SDS011;684;48.342;10.096;2023-06-24T14:02:19;6.37;;;3.60;;
1380;SDS011;684;48.342;10.096;2023-06-24T14:04:46;6.30;;;3.60;;
1380;SDS011;684;48.342;10.096;2023-06-24T14:07:13;6.60;;;3.60;;
1380;SDS011;684;48.342;10.096;2023-06-24T14:09:40;6.00;;;3.80;;
1380;SDS011;684;48.342;10.096;2023-06-24T14:12:07;6.40;;;3.77;;
1380;SDS011;684;48.342;10.096;2023-06-24T14:14:35;6.13;;;3.70;;
1380;SDS011;684;48.342;10.096;2023-06-24T14:17:04;6.93;;;3.60;;
1380;SDS011;684;48.342;10.096;2023-06-24T14:19:36;7.50;;;3.70;;
1380;SDS011;684;48.342;10.096;2023-06-24T14:22:03;5.97;;;3.50;;
1380;SDS011;684;48.342;10.096;2023-06-24T14:24:31;5.37;;;3.17;;
1380;SDS011;684;48.342;10.096;2023-06-24T14:26:58;6.03;;;3.10;;
1380;SDS011;684;48.342;10.096;2023-06-24T14:29:24;7.47;;;3.97;;
1380;SDS011;684;48.342;10.096;2023-06-24T14:31:51;6.13;;;3.70;;
1380;SDS011;684;48.342;10.096;2023-06-24T14:34:18;5.67;;;3.40;;
1380;SDS011;684;48.342;10.096;2023-06-24T14:36:46;7.80;;;4.00;;
1380;SDS011;684;48.342;10.096;2023-06-24T14:39:14;7.20;;;3.70;;
1380;SDS011;684;48.342;10.096;2023-06-24T14:41:41;6.20;;;3.70;;
1380;SDS011;684;48.342;10.096;2023-06-24T14:44:08;8.23;;;4.00;;
1380;SDS011;684;48.342;10.096;2023-06-24T14:46:35;5.90;;;3.70;;
1380;SDS011;684;48.342;10.096;2023-06-24T14:49:02;6.47;;;3.37;;
1380;SDS011;684;48.342;10.096;2023-06-24T14:51:28;8.57;;;4.00;;
1380;SDS011;684;48.342;10.096;2023-06-24T14:53:56;6.30;;;3.70;;
1380;SDS011;684;48.342;10.096;2023-06-24T14:56:23;6.53;;;3.63;;
1380;SDS011;684;48.342;10.096;2023-06-24T14:58:50;6.00;;;3.70;;
1380;SDS011;684;48.342;10.096;2023-06-24T15:01:17;6.10;;;3.87;;
1380;SDS011;684;48.342;10.096;2023-06-24T15:03:43;6.10;;;3.40;;
1380;SDS011;684;48.342;10.096;2023-06-24T15:06:10;7.07;;;3.80;;
1380;SDS011;684;48.342;10.096;2023-06-24T15:08:37;7.03;;;3.70;;
1380;SDS011;684;48.342;10.096;2023-06-24T15:11:05;5.57;;;3.27;;
1380;SDS011;684;48.342;10.096;2023-06-24T15:13:32;6.97;;;3.30;;
1380;SDS011;684;48.342;10.096;2023-06-24T15:15:59;5.70;;;3.60;;
1380;SDS011;684;48.342;10.096;2023-06-24T15:18:25;6.03;;;3.67;;
1380;SDS011;684;48.342;10.096;2023-06-24T15:20:52;7.33;;;3.60;;
1380;SDS011;684;48.342;10.096;2023-06-24T15:23:19;7.50;;;4.07;;